Redings Mill, Missouri
Current Conditions -  °F | °C
As of 5:53 AM on Thursday 29 Jan 2015 (Local Time) from KJLN Reporting Station
Clear Clear  
Wind Chill:   Ceiling: Unl
Heat Index:   Visibility: 10mi
Dew Point:   Wind: 15mph
Humidity: 63%   Direction: 330°NNW
Pressure: 30.11"   Gusts: NA
Location:  37.1074°N, 94.5218°W
Report Text: KJLN 291153Z 33013KT 10SM CLR 08/02 A3011 RMK AO2 SLP192 T00830017 10161 20083 51035
Loading
Personal Weather Stations






























Interactive Weather Map New forecast layout! Learn more

10-Day Weather Forecast

Advertisements
Track Severe Weather on mobile